Time;durP1;ratioP1;P1;durP2;ratioP2;P2;SDS_P1;SDS_P2;PMS_P1;PMS_P2;Temp;Humidity;BMP_temperature;BMP_pressure;BME280_temperature;BME280_humidity;BME280_pressure;Samples;Min_cycle;Max_cycle;Signal;HPM_P1;HPM_P2
2021/10/05 00:01:15;;;;;;;6.03;2.90;;;16.70;99.90;;;;;;5076397;28;20049;-74
2021/10/05 00:03:40;;;;;;;8.70;2.67;;;16.70;99.90;;;;;;5077224;28;20066;-74
2021/10/05 00:06:06;;;;;;;10.77;2.85;;;16.70;99.90;;;;;;5065130;28;20112;-74
2021/10/05 00:08:32;;;;;;;7.28;3.10;;;16.70;99.90;;;;;;5077037;28;20056;-74
2021/10/05 00:10:57;;;;;;;6.85;2.67;;;16.60;99.90;;;;;;5068319;28;20017;-74
2021/10/05 00:13:23;;;;;;;5.15;2.15;;;16.60;99.90;;;;;;5066139;28;20039;-74
2021/10/05 00:15:49;;;;;;;4.88;2.38;;;16.60;99.90;;;;;;5076235;28;20395;-74
2021/10/05 00:18:15;;;;;;;6.53;2.67;;;16.60;99.90;;;;;;5055085;28;20029;-74
2021/10/05 00:20:41;;;;;;;4.80;2.10;;;16.60;99.90;;;;;;5061842;28;20028;-74
2021/10/05 00:23:07;;;;;;;5.82;2.55;;;16.70;99.90;;;;;;5074686;28;20567;-74
2021/10/05 00:25:33;;;;;;;11.60;3.15;;;16.70;99.90;;;;;;5079879;28;20035;-74
2021/10/05 00:27:59;;;;;;;20.17;3.28;;;16.70;99.90;;;;;;5072888;28;20029;-74
2021/10/05 00:30:25;;;;;;;125.82;11.23;;;16.70;99.90;;;;;;5073242;28;20021;-73
2021/10/05 00:32:50;;;;;;;10.20;2.67;;;16.70;99.90;;;;;;5073945;28;20107;-74
2021/10/05 00:35:16;;;;;;;30.35;5.05;;;16.70;99.90;;;;;;5077638;28;20028;-73
2021/10/05 00:37:42;;;;;;;144.82;14.95;;;16.70;99.90;;;;;;5060952;28;20024;-73
2021/10/05 00:40:08;;;;;;;7.30;2.70;;;16.60;99.90;;;;;;5072971;28;20078;-73
2021/10/05 00:42:34;;;;;;;6.50;3.08;;;16.70;99.90;;;;;;5053754;28;20037;-74
2021/10/05 00:45:00;;;;;;;4.45;2.53;;;16.70;99.90;;;;;;5059989;28;20032;-73
2021/10/05 00:47:25;;;;;;;103.78;8.63;;;16.70;99.90;;;;;;5076592;28;20107;-73
2021/10/05 00:49:51;;;;;;;107.07;10.40;;;16.60;99.90;;;;;;5073405;28;20033;-73
2021/10/05 00:52:18;;;;;;;4.78;2.90;;;16.50;99.90;;;;;;5063435;28;20021;-73
2021/10/05 00:54:44;;;;;;;6.03;2.38;;;16.50;99.90;;;;;;5053421;28;20371;-74
2021/10/05 00:57:12;;;;;;;5.97;2.33;;;16.50;99.90;;;;;;5077848;28;20028;-74
2021/10/05 00:59:38;;;;;;;3.65;1.73;;;16.40;99.90;;;;;;5073530;28;20024;-73
2021/10/05 01:02:14;;;;;;;4.55;2.20;;;16.40;99.90;;;;;;5066112;28;20033;-73
2021/10/05 01:04:43;;;;;;;5.68;1.88;;;16.40;99.90;;;;;;5053442;28;20029;-73
2021/10/05 01:07:15;;;;;;;2.67;1.55;;;16.50;99.90;;;;;;5063839;28;20123;-73
2021/10/05 01:09:41;;;;;;;3.78;1.85;;;16.50;99.90;;;;;;5059368;28;20039;-73
2021/10/05 01:12:07;;;;;;;3.40;1.52;;;16.50;99.90;;;;;;5061772;28;20033;-73
2021/10/05 01:14:34;;;;;;;3.42;1.48;;;16.60;99.90;;;;;;5055530;28;20483;-73
2021/10/05 01:17:00;;;;;;;3.25;1.38;;;16.60;99.90;;;;;;5076923;28;20028;-74
2021/10/05 01:19:26;;;;;;;4.85;1.58;;;16.60;99.90;;;;;;5069754;28;20035;-74
2021/10/05 01:21:52;;;;;;;2.95;1.60;;;16.70;99.90;;;;;;5070363;28;20036;-74
2021/10/05 01:24:20;;;;;;;3.53;1.48;;;16.70;99.90;;;;;;5050886;28;20100;-74
2021/10/05 01:26:47;;;;;;;6.40;1.40;;;16.60;99.90;;;;;;5067211;28;20103;-73
2021/10/05 01:29:16;;;;;;;2.67;1.30;;;16.50;99.90;;;;;;5054413;28;20048;-73
2021/10/05 01:31:45;;;;;;;3.80;1.45;;;16.50;99.90;;;;;;5064930;28;20160;-73
2021/10/05 01:34:11;;;;;;;2.15;1.02;;;16.50;99.90;;;;;;5072662;28;20028;-73
2021/10/05 01:36:37;;;;;;;4.07;1.58;;;16.50;99.90;;;;;;5074718;28;20111;-73
2021/10/05 01:39:19;;;;;;;5.38;2.08;;;16.60;99.90;;;;;;5060664;28;20031;-73
2021/10/05 01:41:46;;;;;;;4.72;1.55;;;16.60;99.90;;;;;;5052501;28;20056;-73
2021/10/05 01:44:12;;;;;;;5.80;1.65;;;16.50;99.90;;;;;;5052474;28;20041;-73
2021/10/05 01:46:37;;;;;;;5.40;1.55;;;16.40;99.90;;;;;;5052787;28;20490;-73
2021/10/05 01:49:04;;;;;;;2.80;1.40;;;16.30;99.90;;;;;;5060064;28;20111;-74
2021/10/05 01:51:30;;;;;;;3.83;1.70;;;16.40;99.90;;;;;;5051970;28;20032;-74
2021/10/05 01:53:55;;;;;;;3.35;1.20;;;16.40;99.90;;;;;;5052368;28;20037;-73
2021/10/05 01:56:21;;;;;;;4.00;1.60;;;16.50;99.90;;;;;;5052139;28;20037;-73
2021/10/05 01:58:47;;;;;;;3.55;1.63;;;16.50;99.90;;;;;;5058647;28;20032;-74
2021/10/05 02:01:14;;;;;;;2.88;1.20;;;16.40;99.90;;;;;;5071957;28;20058;-73
2021/10/05 02:03:40;;;;;;;4.65;1.65;;;16.40;99.90;;;;;;5070201;28;20037;-74
2021/10/05 02:06:06;;;;;;;4.80;1.58;;;16.40;99.90;;;;;;5070962;28;20021;-74
2021/10/05 02:08:32;;;;;;;4.60;1.73;;;16.40;99.90;;;;;;5066942;28;20044;-73
2021/10/05 02:10:57;;;;;;;3.13;1.60;;;16.40;99.90;;;;;;5070702;28;20020;-73
2021/10/05 02:13:23;;;;;;;4.68;1.88;;;16.40;99.90;;;;;;5069080;28;20064;-73
2021/10/05 02:15:49;;;;;;;3.20;1.30;;;16.30;99.90;;;;;;5071638;28;20489;-73
2021/10/05 02:18:14;;;;;;;3.05;1.48;;;16.30;99.90;;;;;;5073356;28;20420;-73
2021/10/05 02:20:40;;;;;;;4.63;1.45;;;16.40;99.90;;;;;;5074850;28;20025;-74
2021/10/05 02:23:06;;;;;;;3.75;1.98;;;16.40;99.90;;;;;;5070047;28;20566;-73
2021/10/05 02:25:33;;;;;;;2.38;1.08;;;16.40;99.90;;;;;;5058145;28;20150;-73
2021/10/05 02:27:58;;;;;;;3.00;1.25;;;16.50;99.90;;;;;;5050344;28;20922;-73
2021/10/05 02:30:24;;;;;;;2.20;1.13;;;16.50;99.90;;;;;;5066808;28;20033;-73
2021/10/05 02:32:50;;;;;;;2.20;1.02;;;16.60;99.90;;;;;;5051519;28;20050;-73
2021/10/05 02:35:16;;;;;;;2.70;1.27;;;16.50;99.90;;;;;;5059584;28;20118;-73
2021/10/05 02:37:42;;;;;;;3.10;1.33;;;16.50;99.90;;;;;;5071348;28;20069;-74
2021/10/05 02:40:09;;;;;;;3.60;1.17;;;16.50;99.90;;;;;;5070734;28;20561;-73
2021/10/05 02:42:36;;;;;;;5.03;1.42;;;16.50;99.90;;;;;;5051288;28;20495;-73
2021/10/05 02:45:04;;;;;;;3.42;1.30;;;16.50;99.90;;;;;;5051492;28;20029;-73
2021/10/05 02:47:30;;;;;;;3.65;1.25;;;16.50;99.90;;;;;;5091265;28;20074;-73
2021/10/05 02:49:56;;;;;;;3.67;1.27;;;16.40;99.90;;;;;;5075225;28;20032;-73
2021/10/05 02:52:22;;;;;;;3.05;1.20;;;16.40;99.90;;;;;;5071327;28;20025;-73
2021/10/05 02:54:49;;;;;;;4.00;1.40;;;16.30;99.90;;;;;;5070101;28;20028;-73
2021/10/05 02:57:16;;;;;;;3.55;1.38;;;16.40;99.90;;;;;;5071533;28;20025;-73
2021/10/05 02:59:43;;;;;;;3.42;1.90;;;16.40;99.90;;;;;;5070589;28;20028;-73
2021/10/05 03:02:09;;;;;;;3.42;1.95;;;16.40;99.90;;;;;;5060962;28;20028;-73
2021/10/05 03:04:35;;;;;;;3.63;1.70;;;16.40;99.90;;;;;;5057512;28;20441;-74
2021/10/05 03:07:02;;;;;;;5.75;2.53;;;16.40;99.90;;;;;;5055250;28;20493;-73
2021/10/05 03:09:27;;;;;;;4.20;2.08;;;16.40;99.90;;;;;;5044765;28;20062;-73
2021/10/05 03:11:53;;;;;;;2.65;1.50;;;16.50;99.90;;;;;;5062337;28;20036;-73
2021/10/05 03:14:20;;;;;;;2.95;1.38;;;16.40;99.90;;;;;;5061514;28;20124;-73
2021/10/05 03:16:46;;;;;;;3.95;1.63;;;16.40;99.90;;;;;;5062012;28;21088;-73
2021/10/05 03:19:12;;;;;;;4.25;2.45;;;16.40;99.90;;;;;;5061272;28;20029;-72
2021/10/05 03:21:38;;;;;;;3.72;1.90;;;16.40;99.90;;;;;;5061300;28;20383;-73
2021/10/05 03:24:05;;;;;;;4.88;2.03;;;16.40;99.90;;;;;;5064218;28;20522;-73
2021/10/05 03:26:30;;;;;;;4.45;2.30;;;16.50;99.90;;;;;;5064922;28;20885;-74
2021/10/05 03:28:56;;;;;;;4.82;2.60;;;16.50;99.90;;;;;;5066043;28;20028;-75
2021/10/05 03:31:21;;;;;;;3.63;2.10;;;16.40;99.90;;;;;;5066185;28;20120;-73
2021/10/05 03:33:47;;;;;;;3.03;1.80;;;16.40;99.90;;;;;;5065485;28;20036;-73
2021/10/05 03:36:14;;;;;;;4.05;2.22;;;16.50;99.90;;;;;;5065795;28;20032;-73
2021/10/05 03:38:41;;;;;;;4.10;1.88;;;16.50;99.90;;;;;;5066050;28;20104;-73
2021/10/05 03:41:07;;;;;;;5.18;1.90;;;16.50;99.90;;;;;;5066251;28;20025;-73
2021/10/05 03:43:34;;;;;;;3.50;1.80;;;16.40;99.90;;;;;;5065168;28;20119;-73
2021/10/05 03:45:59;;;;;;;5.28;1.67;;;16.50;99.90;;;;;;5065686;28;20017;-73
2021/10/05 03:48:25;;;;;;;4.00;1.92;;;16.50;99.90;;;;;;5066143;28;20090;-73
2021/10/05 03:50:51;;;;;;;7.82;2.30;;;16.50;99.90;;;;;;5066582;28;20025;-73
2021/10/05 03:53:19;;;;;;;7.13;3.38;;;16.60;99.90;;;;;;5065059;28;20029;-73
2021/10/05 03:55:49;;;;;;;22.90;6.38;;;16.60;99.90;;;;;;5066426;28;20044;-73
2021/10/05 03:58:15;;;;;;;66.25;9.50;;;16.50;99.90;;;;;;5064597;28;20040;-73
2021/10/05 04:00:41;;;;;;;36.10;7.00;;;16.50;99.90;;;;;;5064002;28;20041;-73
2021/10/05 04:03:07;;;;;;;11.45;5.60;;;16.50;99.90;;;;;;5065017;28;20086;-73
2021/10/05 04:05:33;;;;;;;6.78;5.00;;;16.50;99.90;;;;;;5066419;28;20111;-73
2021/10/05 04:07:58;;;;;;;7.68;5.13;;;16.40;99.90;;;;;;5066921;28;20052;-73
2021/10/05 04:10:24;;;;;;;6.88;4.75;;;16.40;99.90;;;;;;5050835;28;20033;-74
2021/10/05 04:12:50;;;;;;;8.38;4.57;;;16.40;99.90;;;;;;5055944;28;20028;-73
2021/10/05 04:15:15;;;;;;;7.05;4.15;;;16.30;99.90;;;;;;5064057;28;20479;-73
2021/10/05 04:17:41;;;;;;;5.45;3.38;;;16.40;99.90;;;;;;5064792;28;20033;-74
2021/10/05 04:20:08;;;;;;;6.85;2.78;;;16.30;99.90;;;;;;5065149;28;20147;-73
2021/10/05 04:22:33;;;;;;;4.22;2.40;;;16.40;99.90;;;;;;5064638;28;20654;-73
2021/10/05 04:24:59;;;;;;;6.60;2.35;;;16.40;99.90;;;;;;5064539;28;20115;-73
2021/10/05 04:27:25;;;;;;;3.92;2.22;;;16.40;99.90;;;;;;5064772;28;20033;-73
2021/10/05 04:29:50;;;;;;;5.35;2.85;;;16.40;99.90;;;;;;5067056;28;20024;-73
2021/10/05 04:32:16;;;;;;;5.57;2.42;;;16.40;99.90;;;;;;5065656;28;20610;-74
2021/10/05 04:34:43;;;;;;;5.70;3.35;;;16.40;99.90;;;;;;5066102;28;20028;-73
2021/10/05 04:37:10;;;;;;;5.03;2.38;;;16.50;99.90;;;;;;5066075;28;20078;-73
2021/10/05 04:39:37;;;;;;;5.10;2.80;;;16.50;99.90;;;;;;5066416;28;20136;-73
2021/10/05 04:42:03;;;;;;;4.50;2.50;;;16.40;99.90;;;;;;5065559;28;20037;-73
2021/10/05 04:44:29;;;;;;;7.22;3.45;;;16.50;99.90;;;;;;5065304;28;20028;-74
2021/10/05 04:46:55;;;;;;;5.90;2.80;;;16.50;99.90;;;;;;5065459;28;20111;-75
2021/10/05 04:49:20;;;;;;;5.32;3.53;;;16.50;99.90;;;;;;5066336;28;20032;-74
2021/10/05 04:51:46;;;;;;;5.70;3.22;;;16.40;99.90;;;;;;5066040;28;20487;-73
2021/10/05 04:54:12;;;;;;;6.35;3.95;;;16.40;99.90;;;;;;5065950;28;20474;-74
2021/10/05 04:56:38;;;;;;;5.15;3.25;;;16.20;99.90;;;;;;5051685;28;20414;-73
2021/10/05 04:59:04;;;;;;;5.50;2.90;;;16.20;99.90;;;;;;5061951;28;20056;-74
2021/10/05 05:01:29;;;;;;;7.70;3.13;;;16.20;99.90;;;;;;5065642;28;20025;-73
2021/10/05 05:03:55;;;;;;;6.72;3.28;;;16.30;99.90;;;;;;5065725;28;20059;-73
2021/10/05 05:06:21;;;;;;;6.55;3.63;;;16.30;99.90;;;;;;5064183;28;20033;-73
2021/10/05 05:08:46;;;;;;;6.25;3.55;;;16.30;99.90;;;;;;5065412;28;20039;-73
2021/10/05 05:11:12;;;;;;;5.85;3.25;;;16.20;99.90;;;;;;5057045;28;20469;-73
2021/10/05 05:13:38;;;;;;;6.40;3.10;;;16.00;99.90;;;;;;5065156;28;20047;-73
2021/10/05 05:16:04;;;;;;;13.02;3.53;;;15.90;99.90;;;;;;5062294;28;20032;-73
2021/10/05 05:18:30;;;;;;;6.15;3.60;;;15.90;99.90;;;;;;5064062;28;20059;-73
2021/10/05 05:20:55;;;;;;;8.00;3.60;;;15.90;99.90;;;;;;5063507;28;20502;-74
2021/10/05 05:23:21;;;;;;;6.15;3.47;;;16.00;99.90;;;;;;5063345;28;20154;-73
2021/10/05 05:25:47;;;;;;;5.50;3.53;;;16.00;99.90;;;;;;5062161;28;20036;-73
2021/10/05 05:28:14;;;;;;;5.15;2.92;;;16.20;99.90;;;;;;5069015;28;20502;-73
2021/10/05 05:30:40;;;;;;;6.18;3.75;;;16.20;99.90;;;;;;5065196;28;20064;-73
2021/10/05 05:33:06;;;;;;;10.30;3.55;;;16.20;99.90;;;;;;5060810;28;20391;-74
2021/10/05 05:35:32;;;;;;;8.55;4.28;;;16.30;99.90;;;;;;5065220;28;20044;-73
2021/10/05 05:37:58;;;;;;;6.57;4.18;;;16.20;99.90;;;;;;5065167;28;20047;-73
2021/10/05 05:40:24;;;;;;;5.55;3.40;;;16.10;99.90;;;;;;5064959;28;20029;-75
2021/10/05 05:42:50;;;;;;;7.68;3.70;;;16.00;99.90;;;;;;5066832;28;20093;-74
2021/10/05 05:45:16;;;;;;;6.95;4.78;;;15.90;99.90;;;;;;5069241;28;20477;-73
2021/10/05 05:47:41;;;;;;;8.38;4.32;;;15.90;99.90;;;;;;5065198;28;20028;-72
2021/10/05 05:50:09;;;;;;;13.57;4.38;;;16.00;99.90;;;;;;5063832;28;20490;-72
2021/10/05 05:52:35;;;;;;;6.70;4.05;;;16.10;99.90;;;;;;5064423;28;20043;-73
2021/10/05 05:55:02;;;;;;;6.63;3.92;;;16.00;99.90;;;;;;5055553;28;20037;-73
2021/10/05 05:57:27;;;;;;;6.22;3.67;;;16.20;99.90;;;;;;5046900;28;20079;-73
2021/10/05 05:59:53;;;;;;;6.00;3.90;;;16.30;99.90;;;;;;5045023;28;20025;-73
2021/10/05 06:02:19;;;;;;;5.55;3.85;;;16.40;99.90;;;;;;5047680;28;20679;-73
2021/10/05 06:04:45;;;;;;;7.45;4.00;;;16.50;99.90;;;;;;5064779;28;20031;-73
2021/10/05 06:07:11;;;;;;;7.90;4.47;;;16.50;99.90;;;;;;5064266;28;20055;-73
2021/10/05 06:09:37;;;;;;;7.03;3.90;;;16.60;99.90;;;;;;5064251;28;20475;-73
2021/10/05 06:12:06;;;;;;;7.07;4.70;;;16.50;99.90;;;;;;5047446;28;20021;-73
2021/10/05 06:14:32;;;;;;;8.68;4.80;;;16.50;99.90;;;;;;5052036;28;20434;-73
2021/10/05 06:17:01;;;;;;;5.68;3.22;;;16.40;99.90;;;;;;5042999;28;20036;-73
2021/10/05 06:19:27;;;;;;;9.05;4.97;;;16.20;99.90;;;;;;5042684;28;20025;-73
2021/10/05 06:21:53;;;;;;;8.75;4.80;;;16.20;99.90;;;;;;5043011;28;20829;-75
2021/10/05 06:24:19;;;;;;;5.20;2.83;;;16.20;99.90;;;;;;5055041;28;20036;-74
2021/10/05 06:26:45;;;;;;;7.53;3.22;;;16.50;99.90;;;;;;5062732;28;20066;-74
2021/10/05 06:29:11;;;;;;;7.95;4.20;;;16.50;99.90;;;;;;5063078;28;20032;-73
2021/10/05 06:31:37;;;;;;;8.32;4.93;;;16.40;99.90;;;;;;5064465;28;20029;-75
2021/10/05 06:34:02;;;;;;;7.93;4.75;;;16.40;99.90;;;;;;5064300;28;20049;-75
2021/10/05 06:36:28;;;;;;;8.80;5.30;;;16.40;99.90;;;;;;5063765;28;20513;-74
2021/10/05 06:38:54;;;;;;;9.43;6.10;;;16.30;99.90;;;;;;5063783;28;20059;-74
2021/10/05 06:41:21;;;;;;;9.30;5.75;;;16.30;99.90;;;;;;5064370;28;20048;-74
2021/10/05 06:43:47;;;;;;;9.65;5.30;;;16.30;99.90;;;;;;5064200;28;20093;-73
2021/10/05 06:46:13;;;;;;;8.93;5.60;;;16.20;99.90;;;;;;5063641;28;20033;-73
2021/10/05 06:48:39;;;;;;;7.82;4.75;;;16.30;99.90;;;;;;5064197;28;20039;-74
2021/10/05 06:51:05;;;;;;;7.35;4.65;;;16.30;99.90;;;;;;5063932;28;20107;-73
2021/10/05 06:53:31;;;;;;;7.30;4.72;;;16.40;99.90;;;;;;5063700;28;20033;-73
2021/10/05 06:55:57;;;;;;;7.88;4.93;;;16.50;99.90;;;;;;5063536;28;20021;-74
2021/10/05 06:58:23;;;;;;;7.18;4.60;;;16.50;99.90;;;;;;5064031;28;20025;-73
2021/10/05 07:00:49;;;;;;;8.18;5.07;;;16.50;99.90;;;;;;5063916;28;20055;-73
2021/10/05 07:03:14;;;;;;;7.63;4.68;;;16.50;99.90;;;;;;5063642;28;20028;-73
2021/10/05 07:05:40;;;;;;;10.82;7.18;;;16.60;99.90;;;;;;5063783;28;20028;-75
2021/10/05 07:08:08;;;;;;;18.60;10.25;;;16.50;99.90;;;;;;5063703;28;20060;-73
2021/10/05 07:10:35;;;;;;;17.15;11.90;;;16.50;99.90;;;;;;5063613;28;20059;-72
2021/10/05 07:13:01;;;;;;;8.13;5.90;;;16.60;99.90;;;;;;5053199;28;20028;-73
2021/10/05 07:15:27;;;;;;;8.05;5.63;;;16.70;99.90;;;;;;5058519;28;20101;-74
2021/10/05 07:17:54;;;;;;;7.80;5.30;;;16.80;99.90;;;;;;5043726;28;20555;-73
2021/10/05 07:20:20;;;;;;;8.02;4.88;;;16.80;99.90;;;;;;5043783;28;20025;-73
2021/10/05 07:22:46;;;;;;;9.77;4.85;;;16.80;99.90;;;;;;5044061;28;20052;-73
2021/10/05 07:25:11;;;;;;;10.07;5.85;;;16.70;99.90;;;;;;5047663;28;20033;-75
2021/10/05 07:27:37;;;;;;;6.20;4.15;;;16.70;99.90;;;;;;5048859;28;20028;-74
2021/10/05 07:30:06;;;;;;;6.68;3.80;;;16.80;99.90;;;;;;5044057;28;20100;-77
2021/10/05 07:32:32;;;;;;;9.25;4.65;;;16.80;99.90;;;;;;5042766;28;20082;-75
2021/10/05 07:34:59;;;;;;;7.35;4.97;;;16.70;99.90;;;;;;5058958;28;20067;-75
2021/10/05 07:37:25;;;;;;;18.42;4.68;;;16.80;99.90;;;;;;5066411;28;20029;-74
2021/10/05 07:39:51;;;;;;;6.22;3.80;;;16.80;99.90;;;;;;5066566;28;20685;-76
2021/10/05 07:42:20;;;;;;;9.18;5.80;;;16.90;99.90;;;;;;5067267;28;20025;-74
2021/10/05 07:44:47;;;;;;;8.32;4.20;;;17.00;99.90;;;;;;5066926;28;20039;-74
2021/10/05 07:47:12;;;;;;;9.73;3.63;;;17.10;99.90;;;;;;5068333;28;20033;-75
2021/10/05 07:49:38;;;;;;;8.93;3.75;;;17.20;99.90;;;;;;5069701;28;20032;-76
2021/10/05 07:52:04;;;;;;;11.13;4.15;;;17.30;99.90;;;;;;5068162;28;20410;-77
2021/10/05 07:54:30;;;;;;;7.53;4.47;;;17.20;99.90;;;;;;5069667;28;20040;-78
2021/10/05 07:56:56;;;;;;;6.80;3.97;;;17.30;99.90;;;;;;5069050;28;20083;-76
2021/10/05 07:59:21;;;;;;;6.20;3.45;;;17.20;99.90;;;;;;5068652;28;20028;-74
2021/10/05 08:01:50;;;;;;;8.25;2.83;;;17.10;99.90;;;;;;5068774;28;20028;-78
2021/10/05 08:04:17;;;;;;;6.72;3.03;;;17.20;99.90;;;;;;5068528;28;20021;-76
2021/10/05 08:06:43;;;;;;;5.70;3.65;;;17.30;99.90;;;;;;5053088;28;20056;-76
2021/10/05 08:09:09;;;;;;;6.22;3.28;;;17.40;99.90;;;;;;5068855;28;20356;-77
2021/10/05 08:11:35;;;;;;;5.90;3.60;;;17.50;99.90;;;;;;5068452;28;20471;-76
2021/10/05 08:14:01;;;;;;;6.53;2.78;;;17.70;99.90;;;;;;5068770;28;20147;-78
2021/10/05 08:16:33;;;;;;;4.68;2.58;;;17.70;99.90;;;;;;5068187;28;20053;-76
2021/10/05 08:18:59;;;;;;;4.13;2.25;;;17.70;99.90;;;;;;5067613;28;20427;-76
2021/10/05 08:21:26;;;;;;;7.18;2.33;;;17.70;99.90;;;;;;5067203;28;20028;-76
2021/10/05 08:23:52;;;;;;;5.38;2.28;;;17.60;99.90;;;;;;5068345;28;20052;-83
2021/10/05 08:26:19;;;;;;;6.18;2.40;;;17.60;99.90;;;;;;5068348;28;20021;-77
2021/10/05 08:28:45;;;;;;;5.10;2.25;;;17.60;99.90;;;;;;5060327;28;20013;-76
2021/10/05 08:31:10;;;;;;;4.90;2.15;;;17.60;99.90;;;;;;5048176;28;20062;-76
2021/10/05 08:33:36;;;;;;;4.65;2.00;;;17.80;99.90;;;;;;5056336;28;20028;-77
2021/10/05 08:36:02;;;;;;;4.80;1.90;;;17.90;99.90;;;;;;5053869;28;20036;-76
2021/10/05 08:38:28;;;;;;;6.25;2.30;;;17.80;99.90;;;;;;5049189;28;20037;-77
2021/10/05 08:40:55;;;;;;;3.47;1.83;;;17.80;99.90;;;;;;5053226;28;20487;-75
2021/10/05 08:43:22;;;;;;;5.22;2.20;;;17.80;99.90;;;;;;5062127;28;20040;-75
2021/10/05 08:45:48;;;;;;;4.78;2.17;;;17.70;99.90;;;;;;5066399;28;20044;-76
2021/10/05 08:48:13;;;;;;;7.00;2.33;;;17.70;99.90;;;;;;5065259;28;20555;-75
2021/10/05 08:50:40;;;;;;;3.70;1.90;;;17.90;99.90;;;;;;5065937;28;20384;-76
2021/10/05 08:53:06;;;;;;;6.03;2.38;;;17.90;99.90;;;;;;5065732;28;20101;-77
2021/10/05 08:55:32;;;;;;;5.22;1.67;;;18.00;99.90;;;;;;5065357;28;20493;-75
2021/10/05 08:57:58;;;;;;;30.23;8.50;;;17.90;99.90;;;;;;5065665;28;20033;-79
2021/10/05 09:00:29;;;;;;;5.75;3.08;;;18.00;99.90;;;;;;5067313;28;20021;-76
2021/10/05 09:02:55;;;;;;;21.42;6.65;;;18.10;99.90;;;;;;5067410;28;20524;-77
2021/10/05 09:05:21;;;;;;;8.25;2.60;;;18.10;99.90;;;;;;5068004;28;20035;-76
2021/10/05 09:07:52;;;;;;;6.50;3.10;;;18.30;99.90;;;;;;5068240;28;20048;-78
2021/10/05 09:10:20;;;;;;;8.60;3.28;;;18.40;99.90;;;;;;5068024;28;20104;-77
2021/10/05 09:12:47;;;;;;;7.22;3.75;;;18.40;99.90;;;;;;5067256;28;20064;-79
2021/10/05 09:15:14;;;;;;;7.25;4.25;;;18.50;99.90;;;;;;5066979;28;20544;-76
2021/10/05 09:17:40;;;;;;;7.55;4.03;;;18.40;99.90;;;;;;5067365;28;20063;-77
2021/10/05 09:20:37;;;;;;;5.18;2.70;;;18.40;99.90;;;;;;5068910;28;20093;-76
2021/10/05 09:23:08;;;;;;;15.90;5.78;;;18.50;99.90;;;;;;5048105;28;20460;-76
2021/10/05 09:25:42;;;;;;;11.18;4.10;;;18.40;99.90;;;;;;5047366;28;20028;-76
2021/10/05 09:28:16;;;;;;;9.65;3.95;;;18.40;99.90;;;;;;5047717;28;20082;-77
2021/10/05 09:30:43;;;;;;;10.07;3.42;;;18.40;99.90;;;;;;5047983;28;20636;-76
2021/10/05 09:33:08;;;;;;;10.43;4.05;;;18.40;99.90;;;;;;5047836;28;20132;-76
2021/10/05 09:35:45;;;;;;;13.65;5.03;;;18.50;99.90;;;;;;5047350;28;20244;-77
2021/10/05 09:38:17;;;;;;;4.47;2.63;;;18.40;99.90;;;;;;5047717;28;20379;-75
2021/10/05 09:40:55;;;;;;;6.15;2.88;;;18.40;99.90;;;;;;5048264;28;20025;-78
2021/10/05 09:43:23;;;;;;;5.22;2.70;;;18.50;99.90;;;;;;5048751;28;20075;-76
2021/10/05 09:45:49;;;;;;;3.67;2.00;;;18.60;99.90;;;;;;5049587;28;20021;-77
2021/10/05 09:48:15;;;;;;;5.82;2.35;;;18.60;99.90;;;;;;5049114;28;20021;-77
2021/10/05 09:50:41;;;;;;;4.13;2.20;;;18.70;99.90;;;;;;5048757;28;20033;-76
2021/10/05 09:53:09;;;;;;;5.90;2.78;;;18.80;99.90;;;;;;5048874;28;20108;-77
2021/10/05 09:55:40;;;;;;;6.15;2.75;;;18.70;99.90;;;;;;5061876;28;20024;-77
2021/10/05 09:58:07;;;;;;;7.80;2.60;;;18.60;99.90;;;;;;5066604;28;20074;-76
2021/10/05 10:00:39;;;;;;;5.85;2.05;;;18.60;99.90;;;;;;5064658;28;20020;-77
2021/10/05 10:03:06;;;;;;;3.72;2.05;;;18.50;99.90;;;;;;5065235;28;20101;-77
2021/10/05 10:05:34;;;;;;;5.30;2.20;;;18.40;99.90;;;;;;5066178;28;20091;-76
2021/10/05 10:08:00;;;;;;;5.55;2.50;;;18.30;99.90;;;;;;5066114;28;20033;-77
2021/10/05 10:10:30;;;;;;;4.30;1.90;;;18.50;99.90;;;;;;5065947;28;20578;-76
2021/10/05 10:13:01;;;;;;;4.82;1.83;;;18.40;99.90;;;;;;5066099;28;20029;-77
2021/10/05 10:15:36;;;;;;;4.32;2.03;;;18.60;99.90;;;;;;5067168;28;20195;-77
2021/10/05 10:18:08;;;;;;;8.82;2.53;;;18.90;99.90;;;;;;5047769;28;20641;-77
2021/10/05 10:20:36;;;;;;;5.15;2.13;;;19.10;99.90;;;;;;5047968;28;20036;-77
2021/10/05 10:23:04;;;;;;;5.15;2.10;;;18.90;99.90;;;;;;5046427;28;20029;-76
2021/10/05 10:25:32;;;;;;;3.72;1.67;;;18.80;99.90;;;;;;5047385;28;20033;-77
2021/10/05 10:28:13;;;;;;;4.43;2.20;;;18.80;99.90;;;;;;5064238;28;20028;-77
2021/10/05 10:30:52;;;;;;;4.50;1.80;;;18.70;99.90;;;;;;5067037;28;20040;-77
2021/10/05 10:33:19;;;;;;;5.07;2.00;;;18.90;99.90;;;;;;5067518;28;20100;-76
2021/10/05 10:35:53;;;;;;;7.15;1.83;;;19.10;99.90;;;;;;5067512;28;20484;-77
2021/10/05 10:38:30;;;;;;;3.83;1.50;;;19.20;99.90;;;;;;5067330;28;20098;-77
2021/10/05 10:40:57;;;;;;;5.45;1.58;;;19.00;99.90;;;;;;5067381;28;20099;-77
2021/10/05 10:43:26;;;;;;;5.95;2.42;;;19.00;99.90;;;;;;5066648;28;20039;-77
2021/10/05 10:46:00;;;;;;;4.95;1.75;;;18.90;99.90;;;;;;5067259;28;20031;-77
2021/10/05 10:48:37;;;;;;;4.72;1.70;;;18.80;99.90;;;;;;5067801;28;20020;-76
2021/10/05 10:51:16;;;;;;;4.88;1.75;;;18.80;99.90;;;;;;5067443;28;20056;-77
2021/10/05 10:53:44;;;;;;;6.53;2.00;;;18.80;99.90;;;;;;5066682;28;20031;-77
2021/10/05 10:56:13;;;;;;;6.28;1.80;;;18.70;99.90;;;;;;5061589;28;20607;-76
2021/10/05 10:58:45;;;;;;;7.07;2.85;;;18.40;99.90;;;;;;5064689;28;20017;-77
2021/10/05 11:01:14;;;;;;;3.53;1.45;;;18.20;99.90;;;;;;5065341;28;20082;-75
2021/10/05 11:03:41;;;;;;;2.95;1.65;;;18.10;99.90;;;;;;5064957;28;20400;-78
2021/10/05 11:06:17;;;;;;;5.22;1.50;;;18.00;99.90;;;;;;5065068;28;20028;-77
2021/10/05 11:08:56;;;;;;;4.05;1.48;;;17.90;99.90;;;;;;5063851;28;20078;-74
2021/10/05 11:11:35;;;;;;;5.38;1.67;;;17.90;99.90;;;;;;5065215;28;20029;-75
2021/10/05 11:14:03;;;;;;;5.80;1.27;;;18.00;99.90;;;;;;5066301;28;20025;-75
2021/10/05 11:16:31;;;;;;;4.53;1.50;;;18.10;99.90;;;;;;5067262;28;20031;-75
2021/10/05 11:19:17;;;;;;;4.00;1.60;;;18.00;99.90;;;;;;5067398;28;20020;-77
2021/10/05 11:21:48;;;;;;;3.58;0.93;;;18.20;99.90;;;;;;5063032;28;20062;-76
2021/10/05 11:24:16;;;;;;;6.55;1.10;;;18.30;99.90;;;;;;5051885;28;20097;-76
2021/10/05 11:26:47;;;;;;;2.33;1.08;;;18.60;99.90;;;;;;5065680;28;20047;-76
2021/10/05 11:29:22;;;;;;;3.25;0.85;;;18.90;99.90;;;;;;5065566;28;20032;-76
2021/10/05 11:31:51;;;;;;;5.47;1.55;;;19.20;99.90;;;;;;5065329;28;20028;-76
2021/10/05 11:34:18;;;;;;;2.20;0.63;;;19.40;99.00;;;;;;5065209;28;20062;-76
2021/10/05 11:36:46;;;;;;;1.70;0.85;;;19.60;99.00;;;;;;5065025;28;20523;-75
2021/10/05 11:39:24;;;;;;;2.40;0.82;;;19.60;97.90;;;;;;5065301;28;20057;-75
2021/10/05 11:41:54;;;;;;;3.95;0.88;;;19.60;97.80;;;;;;5049168;28;20036;-75
2021/10/05 11:44:22;;;;;;;2.90;1.05;;;19.90;98.20;;;;;;5045933;28;20036;-77
2021/10/05 11:47:10;;;;;;;4.70;1.08;;;20.10;98.10;;;;;;5047033;28;20029;-76
2021/10/05 11:49:38;;;;;;;2.00;0.77;;;19.90;98.00;;;;;;5066977;28;20117;-76
2021/10/05 11:52:09;;;;;;;3.60;1.00;;;19.80;98.10;;;;;;5066863;28;20033;-76
2021/10/05 11:54:35;;;;;;;4.35;1.27;;;19.80;98.10;;;;;;5066902;28;20083;-76
2021/10/05 11:57:10;;;;;;;1.90;0.70;;;19.90;97.50;;;;;;5066292;28;20033;-76
2021/10/05 11:59:36;;;;;;;2.30;0.80;;;19.90;98.50;;;;;;5066536;28;20029;-76
2021/10/05 12:02:13;;;;;;;3.90;1.20;;;19.80;96.80;;;;;;5066418;28;20024;-75
2021/10/05 12:04:41;;;;;;;4.15;1.05;;;19.80;98.00;;;;;;5066678;28;20108;-76
2021/10/05 12:07:24;;;;;;;4.32;1.58;;;19.80;98.80;;;;;;5066189;28;20494;-76
2021/10/05 12:10:02;;;;;;;2.47;1.13;;;19.70;98.10;;;;;;5064858;28;20417;-75
2021/10/05 12:12:33;;;;;;;6.68;1.63;;;19.70;98.30;;;;;;5066412;28;20024;-77
2021/10/05 12:15:01;;;;;;;2.78;1.48;;;19.70;98.10;;;;;;5066713;28;20072;-76
2021/10/05 12:17:28;;;;;;;4.35;1.33;;;19.80;98.20;;;;;;5066614;28;20076;-75
2021/10/05 12:20:04;;;;;;;7.72;1.30;;;19.80;97.30;;;;;;5066018;28;20495;-75
2021/10/05 12:22:32;;;;;;;4.45;1.00;;;19.80;97.40;;;;;;5064424;28;20043;-76
2021/10/05 12:25:05;;;;;;;3.55;1.15;;;19.80;97.90;;;;;;5069994;28;20026;-77
2021/10/05 12:27:30;;;;;;;3.30;1.13;;;19.90;97.70;;;;;;5068384;28;20832;-76
2021/10/05 12:30:12;;;;;;;2.58;1.00;;;20.00;97.80;;;;;;5068164;28;20104;-76
2021/10/05 12:32:41;;;;;;;3.10;1.02;;;20.00;97.10;;;;;;5048197;28;20609;-76
2021/10/05 12:35:30;;;;;;;5.55;1.55;;;20.10;97.10;;;;;;5047973;28;20079;-76
2021/10/05 12:38:12;;;;;;;7.35;1.05;;;20.20;96.90;;;;;;5048432;28;20024;-76
2021/10/05 12:40:54;;;;;;;2.97;1.55;;;20.20;97.00;;;;;;5049262;28;20021;-76
2021/10/05 12:43:36;;;;;;;2.88;0.90;;;20.10;97.00;;;;;;5069517;28;20082;-75
2021/10/05 12:46:05;;;;;;;4.88;1.27;;;20.10;96.90;;;;;;5069388;28;20029;-76
2021/10/05 12:48:48;;;;;;;4.35;1.15;;;20.10;97.30;;;;;;5069455;28;20119;-75